Time;durP1;ratioP1;P1;durP2;ratioP2;P2;SDS_P1;SDS_P2;PMS_P1;PMS_P2;Temp;Humidity;BMP_temperature;BMP_pressure;BME280_temperature;BME280_humidity;BME280_pressure;Samples;Min_cycle;Max_cycle;Signal;HPM_P1;HPM_P2
2021/10/25 00:01:43;;;;;;;3.97;1.83;;;9.90;87.30;;;;;;5034017;28;20091;-72
2021/10/25 00:04:09;;;;;;;4.28;2.08;;;9.80;87.70;;;;;;5034778;28;20091;-71
2021/10/25 00:06:35;;;;;;;3.55;1.65;;;9.80;87.40;;;;;;5034260;28;20172;-72
2021/10/25 00:09:00;;;;;;;7.45;1.73;;;9.80;87.40;;;;;;5034292;28;20030;-72
2021/10/25 00:11:26;;;;;;;8.60;1.70;;;9.80;87.40;;;;;;5034116;28;20050;-73
2021/10/25 00:13:52;;;;;;;3.50;1.42;;;9.70;87.60;;;;;;5034148;28;20026;-73
2021/10/25 00:16:18;;;;;;;7.45;2.13;;;9.70;87.60;;;;;;5033529;28;20410;-72
2021/10/25 00:18:43;;;;;;;4.72;1.73;;;9.80;87.60;;;;;;5034047;28;20053;-73
2021/10/25 00:21:09;;;;;;;2.60;1.58;;;9.70;87.60;;;;;;5034052;28;20041;-71
2021/10/25 00:23:35;;;;;;;6.90;1.77;;;9.80;87.40;;;;;;5034166;28;20021;-73
2021/10/25 00:26:01;;;;;;;6.13;1.90;;;9.80;87.40;;;;;;5033924;28;20036;-73
2021/10/25 00:28:27;;;;;;;7.45;1.90;;;9.80;87.00;;;;;;5033967;28;20040;-73
2021/10/25 00:30:53;;;;;;;6.15;2.08;;;10.00;85.70;;;;;;5034228;28;20021;-71
2021/10/25 00:33:19;;;;;;;3.83;1.80;;;10.00;85.30;;;;;;5033032;28;20084;-72
2021/10/25 00:35:44;;;;;;;4.07;1.95;;;10.10;85.30;;;;;;5033556;28;20051;-71
2021/10/25 00:38:10;;;;;;;5.15;1.90;;;10.00;85.60;;;;;;5033527;28;20033;-72
2021/10/25 00:40:36;;;;;;;6.95;1.90;;;10.00;85.60;;;;;;5033687;28;20029;-71
2021/10/25 00:43:01;;;;;;;5.50;2.20;;;10.00;85.70;;;;;;5033847;28;20049;-71
2021/10/25 00:45:27;;;;;;;5.95;2.10;;;9.90;86.50;;;;;;5033824;28;20056;-71
2021/10/25 00:47:53;;;;;;;8.40;2.13;;;9.90;87.20;;;;;;5032434;28;20034;-71
2021/10/25 00:50:18;;;;;;;6.30;2.35;;;9.90;87.10;;;;;;5033456;28;20482;-71
2021/10/25 00:52:44;;;;;;;7.93;2.15;;;9.90;87.30;;;;;;5032424;28;20471;-71
2021/10/25 00:55:11;;;;;;;6.07;1.77;;;9.80;87.20;;;;;;5032666;28;20478;-71
2021/10/25 00:57:37;;;;;;;5.03;1.63;;;9.70;88.20;;;;;;5033389;28;20072;-71
2021/10/25 01:00:05;;;;;;;2.85;1.90;;;9.60;89.20;;;;;;5033313;28;20380;-71
2021/10/25 01:02:30;;;;;;;2.08;1.33;;;9.70;88.70;;;;;;5033511;28;20077;-72
2021/10/25 01:04:56;;;;;;;6.38;1.90;;;9.60;89.20;;;;;;5032394;28;20057;-72
2021/10/25 01:07:22;;;;;;;4.10;1.63;;;9.50;89.50;;;;;;5033686;28;20074;-72
2021/10/25 01:09:49;;;;;;;13.52;1.88;;;9.30;90.10;;;;;;5032199;28;20044;-70
2021/10/25 01:12:16;;;;;;;3.42;1.20;;;9.20;90.10;;;;;;5032857;28;20049;-71
2021/10/25 01:14:42;;;;;;;5.40;1.98;;;9.10;90.40;;;;;;5033288;28;20041;-71
2021/10/25 01:17:07;;;;;;;6.82;1.98;;;9.00;90.50;;;;;;5033034;28;20025;-71
2021/10/25 01:19:33;;;;;;;3.13;1.50;;;9.00;90.50;;;;;;5033130;28;20039;-72
2021/10/25 01:21:58;;;;;;;3.65;1.60;;;9.10;90.30;;;;;;5033107;28;20033;-72
2021/10/25 01:24:24;;;;;;;3.05;1.38;;;9.10;90.20;;;;;;5032919;28;20479;-71
2021/10/25 01:26:50;;;;;;;5.13;1.45;;;9.10;90.20;;;;;;5032680;28;20036;-71
2021/10/25 01:29:19;;;;;;;4.43;2.17;;;9.20;90.40;;;;;;5032576;28;20492;-72
2021/10/25 01:31:45;;;;;;;5.68;2.10;;;9.00;90.50;;;;;;5032796;28;20097;-70
2021/10/25 01:34:13;;;;;;;4.35;1.65;;;9.00;90.90;;;;;;5033312;28;20025;-72
2021/10/25 01:36:39;;;;;;;4.07;1.48;;;8.70;91.10;;;;;;5047805;28;20029;-71
2021/10/25 01:39:04;;;;;;;3.28;1.85;;;8.60;91.30;;;;;;5052551;28;20048;-71
2021/10/25 01:41:30;;;;;;;3.83;1.60;;;8.60;91.40;;;;;;5052508;28;20029;-72
2021/10/25 01:43:56;;;;;;;4.75;1.80;;;8.40;91.50;;;;;;5052377;28;20029;-72
2021/10/25 01:46:21;;;;;;;6.47;1.85;;;8.30;91.60;;;;;;5052843;28;20473;-71
2021/10/25 01:48:48;;;;;;;3.75;1.50;;;8.30;91.80;;;;;;5052527;28;20044;-72
2021/10/25 01:51:14;;;;;;;4.78;1.80;;;8.30;91.80;;;;;;5051229;28;20249;-72
2021/10/25 01:53:39;;;;;;;6.20;2.10;;;8.20;91.80;;;;;;5052348;28;20064;-72
2021/10/25 01:56:07;;;;;;;4.05;1.92;;;8.20;91.70;;;;;;5052101;28;20036;-72
2021/10/25 01:58:33;;;;;;;5.90;2.08;;;8.20;91.80;;;;;;5052254;28;20028;-72
2021/10/25 02:00:59;;;;;;;4.47;1.65;;;8.10;91.80;;;;;;5051960;28;20017;-72
2021/10/25 02:03:27;;;;;;;4.93;1.80;;;8.20;91.60;;;;;;5052165;28;20053;-72
2021/10/25 02:05:53;;;;;;;6.68;1.73;;;8.30;91.40;;;;;;5051935;28;20029;-72
2021/10/25 02:08:18;;;;;;;4.22;1.63;;;8.30;91.10;;;;;;5051841;28;20025;-72
2021/10/25 02:10:44;;;;;;;5.07;1.70;;;8.30;90.80;;;;;;5051866;28;20025;-72
2021/10/25 02:13:15;;;;;;;5.40;2.00;;;8.40;90.70;;;;;;5052213;28;20017;-72
2021/10/25 02:15:42;;;;;;;8.80;1.88;;;8.40;91.00;;;;;;5050792;28;20419;-72
2021/10/25 02:18:07;;;;;;;5.22;2.03;;;8.50;90.80;;;;;;5051750;28;20033;-72
2021/10/25 02:20:33;;;;;;;4.60;1.85;;;8.50;91.00;;;;;;5051730;28;20107;-71
2021/10/25 02:22:58;;;;;;;6.43;1.92;;;8.50;91.00;;;;;;5051577;28;20025;-72
2021/10/25 02:25:24;;;;;;;4.05;1.60;;;8.50;90.70;;;;;;5052134;28;20033;-71
2021/10/25 02:27:50;;;;;;;5.70;2.20;;;8.50;90.90;;;;;;5051653;28;20024;-69
2021/10/25 02:30:16;;;;;;;4.25;1.92;;;8.40;90.90;;;;;;5051537;28;20079;-72
2021/10/25 02:32:43;;;;;;;4.75;1.95;;;8.30;91.40;;;;;;5050734;28;20036;-71
2021/10/25 02:35:09;;;;;;;11.98;3.80;;;8.30;91.50;;;;;;5051492;28;20509;-69
2021/10/25 02:37:34;;;;;;;6.70;1.60;;;8.30;91.50;;;;;;5050551;28;20037;-71
2021/10/25 02:40:00;;;;;;;5.38;1.85;;;8.30;91.50;;;;;;5051964;28;20018;-71
2021/10/25 02:42:26;;;;;;;4.15;1.83;;;8.20;91.30;;;;;;5051675;28;20438;-71
2021/10/25 02:44:51;;;;;;;5.72;1.55;;;8.20;91.60;;;;;;5051524;28;20041;-71
2021/10/25 02:47:17;;;;;;;4.45;1.70;;;8.20;91.70;;;;;;5050270;28;20033;-70
2021/10/25 02:49:43;;;;;;;3.35;2.00;;;8.20;91.70;;;;;;5051320;28;20025;-71
2021/10/25 02:52:09;;;;;;;4.45;1.70;;;8.10;91.90;;;;;;5051615;28;20620;-70
2021/10/25 02:54:34;;;;;;;4.93;1.98;;;8.10;91.90;;;;;;5051586;28;20383;-71
2021/10/25 02:57:00;;;;;;;3.85;1.70;;;8.10;91.90;;;;;;5051536;28;20600;-71
2021/10/25 02:59:25;;;;;;;7.03;2.03;;;8.10;91.80;;;;;;5051117;28;20470;-72
2021/10/25 03:01:51;;;;;;;5.82;2.13;;;8.10;91.80;;;;;;5051384;28;20033;-72
2021/10/25 03:04:17;;;;;;;4.50;1.85;;;8.10;91.70;;;;;;5051439;28;20036;-72
2021/10/25 03:06:43;;;;;;;12.18;2.17;;;8.10;91.70;;;;;;5051304;28;20037;-72
2021/10/25 03:09:09;;;;;;;4.88;1.80;;;8.10;91.60;;;;;;5051097;28;20048;-71
2021/10/25 03:11:34;;;;;;;5.40;2.13;;;8.10;91.80;;;;;;5050969;28;20352;-72
2021/10/25 03:14:00;;;;;;;12.95;2.47;;;8.10;91.80;;;;;;5055310;28;20106;-71
2021/10/25 03:16:26;;;;;;;4.80;1.90;;;8.10;91.80;;;;;;5055597;28;20071;-72
2021/10/25 03:18:52;;;;;;;8.18;1.85;;;8.00;91.70;;;;;;5055407;28;20044;-71
2021/10/25 03:21:18;;;;;;;5.18;2.05;;;8.10;91.80;;;;;;5055348;28;20025;-72
2021/10/25 03:23:45;;;;;;;6.15;2.25;;;8.00;91.90;;;;;;5055338;28;20037;-71
2021/10/25 03:26:10;;;;;;;5.88;1.90;;;8.10;92.00;;;;;;5055153;28;20025;-71
2021/10/25 03:28:36;;;;;;;6.28;2.28;;;8.10;91.90;;;;;;5054921;28;20086;-71
2021/10/25 03:31:03;;;;;;;6.45;2.10;;;8.10;92.00;;;;;;5055413;28;20017;-71
2021/10/25 03:33:30;;;;;;;6.07;2.05;;;8.10;91.70;;;;;;5055004;28;20037;-71
2021/10/25 03:35:56;;;;;;;7.88;2.47;;;8.10;91.70;;;;;;5054881;28;20086;-71
2021/10/25 03:38:22;;;;;;;8.15;2.05;;;8.10;91.80;;;;;;5054639;28;20092;-71
2021/10/25 03:40:51;;;;;;;6.30;2.03;;;8.20;92.10;;;;;;5054630;28;20409;-71
2021/10/25 03:43:18;;;;;;;7.10;2.20;;;8.00;92.00;;;;;;5055093;28;20056;-71
2021/10/25 03:46:04;;;;;;;3.90;1.90;;;8.00;92.10;;;;;;5055004;28;20048;-71
2021/10/25 03:48:38;;;;;;;4.07;1.83;;;8.00;92.20;;;;;;5054511;28;20304;-72
2021/10/25 03:51:04;;;;;;;6.50;2.20;;;8.00;92.10;;;;;;5054755;28;20132;-71
2021/10/25 03:56:29;;;;;;;6.35;1.95;;;8.00;92.10;;;;;;5042939;28;20029;-71
2021/10/25 04:04:28;;;;;;;5.68;2.35;;;8.00;92.10;;;;;;5054853;28;20131;-72
2021/10/25 04:28:40;;;;;;;4.80;2.30;;;7.80;92.30;;;;;;5053851;28;20108;-71
2021/10/25 04:31:07;;;;;;;4.95;2.50;;;7.90;92.30;;;;;;5054261;28;20013;-70
2021/10/25 04:33:32;;;;;;;5.50;2.40;;;7.80;92.50;;;;;;5053802;28;20092;-71
2021/10/25 04:35:58;;;;;;;6.60;2.20;;;7.80;92.50;;;;;;5053864;28;20145;-72
2021/10/25 04:38:23;;;;;;;5.35;2.45;;;7.80;92.50;;;;;;5053673;28;20037;-71
2021/10/25 04:40:49;;;;;;;10.68;2.60;;;7.80;92.60;;;;;;5053764;28;20029;-71
2021/10/25 04:43:16;;;;;;;11.57;2.60;;;7.80;92.70;;;;;;5054022;28;20025;-72
2021/10/25 04:45:43;;;;;;;7.63;2.33;;;7.80;92.70;;;;;;5053540;28;20033;-72
2021/10/25 04:48:10;;;;;;;7.05;2.17;;;7.90;92.60;;;;;;5053364;28;20040;-72
2021/10/25 04:50:36;;;;;;;7.90;2.80;;;7.90;92.50;;;;;;5053307;28;20484;-71
2021/10/25 04:53:02;;;;;;;5.75;2.45;;;7.80;92.50;;;;;;5053362;28;20154;-71
2021/10/25 04:55:28;;;;;;;7.15;2.28;;;7.80;92.80;;;;;;5053225;28;20029;-72
2021/10/25 04:57:53;;;;;;;11.80;2.53;;;7.80;92.80;;;;;;5052851;28;20036;-71
2021/10/25 05:00:19;;;;;;;4.82;2.42;;;7.80;92.80;;;;;;5053168;28;20036;-71
2021/10/25 05:02:44;;;;;;;7.30;2.72;;;7.80;92.60;;;;;;5051865;28;20390;-71
2021/10/25 05:05:10;;;;;;;5.63;2.40;;;7.90;92.80;;;;;;5052949;28;20454;-71
2021/10/25 05:07:36;;;;;;;4.82;2.25;;;7.90;92.80;;;;;;5052966;28;20025;-72
2021/10/25 05:10:03;;;;;;;5.70;2.40;;;7.80;92.90;;;;;;5053702;28;20083;-72
2021/10/25 05:12:29;;;;;;;7.30;2.55;;;7.80;92.60;;;;;;5051502;28;20055;-72
2021/10/25 05:14:55;;;;;;;7.97;2.30;;;7.90;92.90;;;;;;5052955;28;20471;-71
2021/10/25 05:17:21;;;;;;;6.78;2.55;;;7.90;92.90;;;;;;5052913;28;20071;-71
2021/10/25 05:19:46;;;;;;;5.82;2.55;;;7.90;92.60;;;;;;5052750;28;20045;-70
2021/10/25 05:22:12;;;;;;;4.25;2.42;;;7.90;93.00;;;;;;5053064;28;20659;-70
2021/10/25 05:24:41;;;;;;;5.68;2.58;;;7.90;92.70;;;;;;5052634;28;20043;-71
2021/10/25 05:27:07;;;;;;;10.10;2.40;;;7.90;92.90;;;;;;5051708;28;20021;-71
2021/10/25 05:29:33;;;;;;;6.65;2.70;;;7.90;92.70;;;;;;5052426;28;20102;-71
2021/10/25 05:31:59;;;;;;;7.43;3.33;;;7.90;92.80;;;;;;5051433;28;20387;-71
2021/10/25 05:34:25;;;;;;;8.25;2.70;;;8.00;92.80;;;;;;5052227;28;20021;-71
2021/10/25 05:36:50;;;;;;;9.50;3.03;;;7.90;92.90;;;;;;5052388;28;20033;-71
2021/10/25 05:39:16;;;;;;;7.15;2.90;;;8.00;92.80;;;;;;5052240;28;20039;-71
2021/10/25 05:41:44;;;;;;;6.63;2.80;;;8.00;92.90;;;;;;5051962;28;20125;-71
2021/10/25 05:44:10;;;;;;;7.57;2.50;;;7.90;92.90;;;;;;5051001;28;20090;-70
2021/10/25 05:46:36;;;;;;;5.82;2.47;;;7.90;93.10;;;;;;5052000;28;20074;-70
2021/10/25 05:49:01;;;;;;;9.02;2.70;;;8.00;92.90;;;;;;5052578;28;20017;-70
2021/10/25 05:51:27;;;;;;;5.65;2.70;;;8.00;93.00;;;;;;5050898;28;20025;-71
2021/10/25 05:53:54;;;;;;;8.65;2.97;;;8.00;93.00;;;;;;5051771;28;20044;-71
2021/10/25 05:56:20;;;;;;;6.03;2.53;;;7.90;93.10;;;;;;5051749;28;20090;-72
2021/10/25 05:58:46;;;;;;;5.97;2.63;;;8.00;93.00;;;;;;5051461;28;20146;-70
2021/10/25 06:01:15;;;;;;;9.25;3.25;;;8.00;92.90;;;;;;5052176;28;20099;-70
2021/10/25 06:03:42;;;;;;;6.47;2.95;;;8.00;92.90;;;;;;5051836;28;20033;-70
2021/10/25 06:06:09;;;;;;;5.03;2.53;;;8.00;92.90;;;;;;5044749;28;20129;-70
2021/10/25 06:08:34;;;;;;;6.38;3.08;;;8.00;93.10;;;;;;5051794;28;20041;-70
2021/10/25 06:11:00;;;;;;;7.00;2.67;;;8.00;93.10;;;;;;5051404;28;20184;-70
2021/10/25 06:13:30;;;;;;;4.40;2.42;;;8.00;93.10;;;;;;5052127;28;20029;-70
2021/10/25 06:16:08;;;;;;;7.13;3.20;;;8.00;93.20;;;;;;5052054;28;20041;-74
2021/10/25 06:18:34;;;;;;;12.43;2.90;;;8.00;93.10;;;;;;5051615;28;20048;-69
2021/10/25 06:21:00;;;;;;;9.20;2.88;;;8.20;93.10;;;;;;5051528;28;20033;-73
2021/10/25 06:23:26;;;;;;;6.35;3.13;;;8.00;93.10;;;;;;5051529;28;20344;-74
2021/10/25 06:25:52;;;;;;;5.28;2.45;;;8.10;93.00;;;;;;5051711;28;20456;-74
2021/10/25 06:28:19;;;;;;;7.57;3.08;;;8.10;92.90;;;;;;5051875;28;20025;-73
2021/10/25 06:30:54;;;;;;;13.45;3.10;;;8.10;93.10;;;;;;5051432;28;20025;-72
2021/10/25 06:33:20;;;;;;;4.75;2.60;;;8.10;93.00;;;;;;5050112;28;20116;-73
2021/10/25 06:35:50;;;;;;;12.52;5.63;;;8.00;93.20;;;;;;5051328;28;20025;-68
2021/10/25 06:38:16;;;;;;;10.93;4.10;;;8.10;93.20;;;;;;5051532;28;20112;-73
2021/10/25 06:40:41;;;;;;;8.00;4.55;;;8.00;93.30;;;;;;5051311;28;20101;-71
2021/10/25 06:43:10;;;;;;;12.25;4.57;;;8.00;93.50;;;;;;5051547;28;20040;-72
2021/10/25 06:45:36;;;;;;;8.23;3.97;;;8.10;93.50;;;;;;5051144;28;20039;-71
2021/10/25 06:48:01;;;;;;;12.48;4.07;;;8.10;93.40;;;;;;5051082;28;20383;-71
2021/10/25 06:50:28;;;;;;;9.60;3.58;;;8.10;93.20;;;;;;5050820;28;20035;-71
2021/10/25 06:53:04;;;;;;;4.50;2.75;;;8.00;93.30;;;;;;5051272;28;20040;-72
2021/10/25 06:55:29;;;;;;;6.78;3.00;;;8.10;93.30;;;;;;5049864;28;20056;-71
2021/10/25 06:57:56;;;;;;;10.73;3.70;;;8.20;93.30;;;;;;5051339;28;20060;-71
2021/10/25 07:00:21;;;;;;;10.27;3.47;;;8.10;93.40;;;;;;5050961;28;20033;-69
2021/10/25 07:02:48;;;;;;;5.70;3.13;;;8.20;93.60;;;;;;5051157;28;20086;-70
2021/10/25 07:05:14;;;;;;;7.32;3.33;;;8.20;93.30;;;;;;5046596;28;20033;-70
2021/10/25 07:07:39;;;;;;;8.55;3.22;;;8.20;93.40;;;;;;5049738;28;20529;-70
2021/10/25 07:10:07;;;;;;;7.45;3.65;;;8.30;93.40;;;;;;5051350;28;20021;-72
2021/10/25 07:12:33;;;;;;;10.52;3.10;;;8.20;93.40;;;;;;5050713;28;20059;-69
2021/10/25 07:15:00;;;;;;;8.65;3.17;;;8.20;93.50;;;;;;5050915;28;20040;-72
2021/10/25 07:21:08;;;;;;;9.43;3.20;;;8.40;93.40;;;;;;5050746;28;20525;-73
2021/10/25 08:06:46;;;;;;;9.45;4.45;;;9.20;93.40;;;;;;5054038;28;20049;-72
2021/10/25 08:09:25;;;;;;;15.43;5.93;;;9.30;93.20;;;;;;5053957;28;20021;-74
2021/10/25 08:11:55;;;;;;;9.25;3.75;;;9.40;93.00;;;;;;5053750;28;20061;-74
2021/10/25 08:14:31;;;;;;;9.57;3.50;;;9.50;92.70;;;;;;5054012;28;20033;-72
2021/10/25 08:16:57;;;;;;;11.25;4.05;;;9.50;92.70;;;;;;5052728;28;20047;-73
2021/10/25 08:19:28;;;;;;;8.65;3.67;;;9.70;92.60;;;;;;5054324;28;20045;-76
2021/10/25 08:21:59;;;;;;;8.32;3.90;;;9.80;92.70;;;;;;5053797;28;20033;-72
2021/10/25 08:24:27;;;;;;;9.10;4.22;;;9.90;92.30;;;;;;5053804;28;20044;-76
2021/10/25 08:26:54;;;;;;;16.95;6.10;;;10.20;91.60;;;;;;5053817;28;20116;-74
2021/10/25 08:29:21;;;;;;;7.82;3.75;;;10.40;91.40;;;;;;5053317;28;20025;-73
2021/10/25 08:32:40;;;;;;;9.63;3.20;;;10.50;91.10;;;;;;5053538;28;20064;-73
2021/10/25 08:40:00;;;;;;;5.25;3.28;;;10.80;90.80;;;;;;5053458;28;20052;-75
2021/10/25 08:42:29;;;;;;;9.38;3.50;;;10.90;90.70;;;;;;5053438;28;20058;-74
2021/10/25 08:45:07;;;;;;;7.22;3.28;;;11.00;90.70;;;;;;5053199;28;20044;-71
2021/10/25 08:47:38;;;;;;;7.88;3.47;;;11.00;90.40;;;;;;5053233;28;20036;-75
2021/10/25 08:50:06;;;;;;;9.98;5.03;;;11.00;90.40;;;;;;5052909;28;20074;-77
2021/10/25 08:52:32;;;;;;;9.18;3.80;;;11.10;90.40;;;;;;5052242;28;20051;-74
2021/10/25 08:55:01;;;;;;;5.32;3.17;;;11.10;90.20;;;;;;5053711;28;20344;-74
2021/10/25 08:57:27;;;;;;;6.97;3.78;;;11.00;90.10;;;;;;5052843;28;20083;-73
2021/10/25 09:00:05;;;;;;;10.13;3.67;;;11.00;90.20;;;;;;5052939;28;20033;-76
2021/10/25 09:02:31;;;;;;;11.48;4.03;;;11.00;90.30;;;;;;5052580;28;20029;-75
2021/10/25 09:05:20;;;;;;;5.55;3.17;;;11.10;90.30;;;;;;5052336;28;20360;-73
2021/10/25 09:07:53;;;;;;;12.05;3.88;;;11.20;90.30;;;;;;5052517;28;20029;-74
2021/10/25 09:10:28;;;;;;;7.00;3.60;;;11.40;90.40;;;;;;5051770;28;20032;-76
2021/10/25 09:12:57;;;;;;;8.70;3.95;;;11.60;90.30;;;;;;5052400;28;20055;-76
2021/10/25 09:15:26;;;;;;;8.18;3.70;;;11.90;90.10;;;;;;5052595;28;20041;-77
2021/10/25 09:17:52;;;;;;;8.38;3.88;;;12.00;89.70;;;;;;5051368;28;20471;-73
2021/10/25 09:20:18;;;;;;;8.68;3.72;;;12.30;88.90;;;;;;5052750;28;20359;-76
2021/10/25 09:22:44;;;;;;;9.25;4.25;;;12.60;88.70;;;;;;5052333;28;20465;-72
2021/10/25 09:25:10;;;;;;;8.70;3.53;;;12.80;89.10;;;;;;5052583;28;20021;-74
2021/10/25 09:27:40;;;;;;;10.43;3.95;;;12.80;88.40;;;;;;5051968;28;20112;-73
2021/10/25 09:30:16;;;;;;;7.20;3.28;;;12.90;87.90;;;;;;5051980;28;20025;-77
2021/10/25 09:32:46;;;;;;;7.55;3.53;;;13.10;87.80;;;;;;5052109;28;20110;-80
2021/10/25 09:35:27;;;;;;;5.35;3.45;;;13.90;86.30;;;;;;5051993;28;20044;-73
2021/10/25 09:38:04;;;;;;;10.32;3.30;;;14.20;85.00;;;;;;5052052;28;20064;-71
2021/10/25 09:40:49;;;;;;;9.60;3.43;;;14.50;83.60;;;;;;5051855;28;20021;-75
2021/10/25 09:49:09;;;;;;;9.50;3.40;;;16.20;81.60;;;;;;5051839;28;20198;-81
2021/10/25 09:51:41;;;;;;;4.75;2.90;;;16.70;80.70;;;;;;5051744;28;20444;-78
2021/10/25 09:54:08;;;;;;;7.85;3.72;;;16.70;78.30;;;;;;5050618;28;20025;-79
2021/10/25 09:56:43;;;;;;;8.13;3.33;;;16.90;78.70;;;;;;5051770;28;20044;-81
2021/10/25 10:01:42;;;;;;;11.27;3.47;;;16.90;77.70;;;;;;5052154;28;20025;-79
2021/10/25 10:04:09;;;;;;;7.60;3.07;;;17.70;77.70;;;;;;5051983;28;20370;-80
2021/10/25 10:06:36;;;;;;;7.10;3.33;;;18.50;77.00;;;;;;5050457;28;20727;-78
2021/10/25 10:09:02;;;;;;;9.75;2.85;;;19.40;74.60;;;;;;5051784;28;20029;-77
2021/10/25 10:11:29;;;;;;;8.68;2.92;;;19.60;72.30;;;;;;5051465;28;20458;-78
2021/10/25 10:13:56;;;;;;;4.85;3.03;;;20.00;72.00;;;;;;5051428;28;20435;-79
2021/10/25 10:16:25;;;;;;;6.88;2.90;;;20.30;69.00;;;;;;5052380;28;20110;-77
2021/10/25 10:19:02;;;;;;;5.80;2.53;;;20.70;68.60;;;;;;5051686;28;20036;-79
2021/10/25 10:21:30;;;;;;;8.43;2.67;;;20.80;67.00;;;;;;5051252;28;20426;-80
2021/10/25 10:24:04;;;;;;;7.22;3.30;;;21.10;67.20;;;;;;5051494;28;20029;-77
2021/10/25 10:26:35;;;;;;;6.68;2.85;;;21.70;67.20;;;;;;5050675;28;20483;-79
2021/10/25 10:29:16;;;;;;;6.13;2.75;;;22.30;66.60;;;;;;5051271;28;20052;-75
2021/10/25 10:31:43;;;;;;;7.78;2.30;;;23.10;63.10;;;;;;5050328;28;20024;-75
2021/10/25 10:34:17;;;;;;;6.53;3.13;;;23.40;61.10;;;;;;5051762;28;20029;-71
2021/10/25 10:36:57;;;;;;;7.38;3.03;;;23.40;60.10;;;;;;5051213;28;20033;-71
2021/10/25 10:39:27;;;;;;;8.43;2.70;;;23.30;59.70;;;;;;5051188;28;20040;-71
2021/10/25 10:41:56;;;;;;;6.95;2.83;;;22.10;58.80;;;;;;5051259;28;20029;-70
2021/10/25 10:44:27;;;;;;;5.47;2.70;;;21.40;61.00;;;;;;5049493;28;20040;-70
2021/10/25 10:46:59;;;;;;;6.38;3.00;;;20.60;61.90;;;;;;5051121;28;20037;-70
2021/10/25 10:49:32;;;;;;;6.38;2.75;;;19.80;64.00;;;;;;5051556;28;20090;-73
2021/10/25 10:55:10;;;;;;;6.10;2.83;;;20.20;65.10;;;;;;5051088;28;20021;-70
2021/10/25 11:00:25;;;;;;;4.85;2.47;;;21.60;63.10;;;;;;5050485;28;20025;-71
2021/10/25 11:02:57;;;;;;;7.47;3.50;;;21.70;61.70;;;;;;5050668;28;20025;-71
2021/10/25 11:05:36;;;;;;;6.05;3.58;;;21.80;61.40;;;;;;5050642;28;20427;-71
2021/10/25 11:08:08;;;;;;;6.93;2.20;;;21.50;61.70;;;;;;5050699;28;20045;-71
2021/10/25 11:10:35;;;;;;;7.43;3.08;;;21.50;62.20;;;;;;5050824;28;20072;-71
2021/10/25 11:13:15;;;;;;;7.75;2.38;;;21.00;61.10;;;;;;5051098;28;20057;-71
2021/10/25 11:16:11;;;;;;;5.93;2.60;;;20.80;62.10;;;;;;5050505;28;20030;-73
2021/10/25 11:18:48;;;;;;;6.10;3.05;;;20.00;62.90;;;;;;5049420;28;20457;-75
2021/10/25 11:21:20;;;;;;;10.10;2.70;;;19.20;64.90;;;;;;5050789;28;20485;-73
2021/10/25 11:23:55;;;;;;;4.60;2.50;;;19.00;65.70;;;;;;5047762;28;20045;-76
2021/10/25 11:26:34;;;;;;;5.50;2.40;;;18.90;65.90;;;;;;5050956;28;20184;-74
2021/10/25 11:29:11;;;;;;;9.43;2.75;;;18.90;66.50;;;;;;5050755;28;20024;-75
2021/10/25 11:31:46;;;;;;;3.97;2.47;;;18.80;66.70;;;;;;5050637;28;20335;-75
2021/10/25 11:34:20;;;;;;;5.60;2.70;;;18.70;67.40;;;;;;5054882;28;20016;-73
2021/10/25 11:36:54;;;;;;;7.53;2.67;;;18.70;68.20;;;;;;5053636;28;20067;-74
2021/10/25 11:39:27;;;;;;;10.25;3.88;;;18.90;67.90;;;;;;5054309;28;20029;-73
2021/10/25 11:41:53;;;;;;;8.45;3.28;;;18.90;67.60;;;;;;5054526;28;20029;-74
2021/10/25 11:44:18;;;;;;;6.30;2.40;;;19.00;67.40;;;;;;5054627;28;20074;-75
2021/10/25 11:46:44;;;;;;;8.13;2.40;;;19.00;67.00;;;;;;5053306;28;20032;-74
2021/10/25 11:49:10;;;;;;;3.90;2.15;;;19.00;67.40;;;;;;5053668;28;20029;-74
2021/10/25 11:51:46;;;;;;;6.88;2.00;;;19.20;67.30;;;;;;5053351;28;20055;-74
2021/10/25 11:54:12;;;;;;;13.52;2.92;;;18.80;66.80;;;;;;5054061;28;20466;-74
2021/10/25 11:56:38;;;;;;;5.28;2.25;;;18.90;67.30;;;;;;5054121;28;20032;-74
2021/10/25 11:59:10;;;;;;;9.25;4.38;;;18.90;67.40;;;;;;5053876;28;20507;-72
2021/10/25 12:01:36;;;;;;;5.20;3.00;;;19.10;67.30;;;;;;5054045;28;20021;-73
2021/10/25 12:04:07;;;;;;;5.60;2.05;;;19.00;67.50;;;;;;5053222;28;20036;-71
2021/10/25 12:06:34;;;;;;;8.52;2.20;;;19.00;67.40;;;;;;5054058;28;20021;-73
2021/10/25 12:09:06;;;;;;;6.78;2.17;;;18.90;68.10;;;;;;5053701;28;20474;-75
2021/10/25 12:11:53;;;;;;;4.70;2.70;;;18.80;68.40;;;;;;5053667;28;20406;-74
2021/10/25 12:14:32;;;;;;;5.20;2.42;;;18.50;68.10;;;;;;5054185;28;20025;-72
2021/10/25 12:16:58;;;;;;;5.03;1.90;;;18.60;68.80;;;;;;5053080;28;20114;-75
2021/10/25 12:19:26;;;;;;;7.70;2.38;;;18.70;69.20;;;;;;5054151;28;20069;-73
2021/10/25 12:21:52;;;;;;;4.97;2.03;;;18.70;69.30;;;;;;5053971;28;20037;-75
2021/10/25 12:24:20;;;;;;;3.40;2.10;;;18.60;69.50;;;;;;5053398;28;20037;-75
2021/10/25 12:27:01;;;;;;;5.80;2.22;;;18.70;69.60;;;;;;5053753;28;20029;-73
2021/10/25 12:29:27;;;;;;;9.32;2.53;;;18.70;69.60;;;;;;5041771;28;20029;-73
2021/10/25 12:31:53;;;;;;;6.10;2.45;;;18.40;69.70;;;;;;5033816;28;20439;-72
2021/10/25 12:34:19;;;;;;;3.97;2.05;;;18.30;70.30;;;;;;5034183;28;20113;-73
2021/10/25 12:36:46;;;;;;;7.85;2.30;;;18.20;70.60;;;;;;5033464;28;20549;-73
2021/10/25 12:39:18;;;;;;;6.22;2.80;;;17.90;71.00;;;;;;5033285;28;20045;-73
2021/10/25 12:41:52;;;;;;;4.35;2.17;;;17.70;70.90;;;;;;5033498;28;20033;-74
2021/10/25 12:44:25;;;;;;;5.88;2.75;;;17.60;71.40;;;;;;5033065;28;20052;-73
2021/10/25 12:46:54;;;;;;;8.98;2.40;;;17.60;71.70;;;;;;5032191;28;20056;-73
2021/10/25 12:49:21;;;;;;;7.65;2.63;;;17.50;71.80;;;;;;5032839;28;20032;-73
2021/10/25 12:51:47;;;;;;;6.18;2.55;;;17.50;72.40;;;;;;5033445;28;20120;-73
2021/10/25 12:54:14;;;;;;;8.63;2.60;;;17.50;72.60;;;;;;5032842;28;20124;-73
2021/10/25 12:56:40;;;;;;;5.97;2.72;;;17.30;73.30;;;;;;5033040;28;20036;-73
2021/10/25 12:59:11;;;;;;;7.80;2.90;;;17.30;72.90;;;;;;5032985;28;20459;-73
2021/10/25 13:01:38;;;;;;;7.82;2.72;;;17.40;73.10;;;;;;5032972;28;20030;-70
2021/10/25 13:04:05;;;;;;;7.07;2.20;;;17.40;73.00;;;;;;5033311;28;20037;-73
2021/10/25 13:06:32;;;;;;;5.93;2.60;;;17.40;73.10;;;;;;5033076;28;20025;-73
2021/10/25 13:09:05;;;;;;;5.82;3.22;;;17.40;73.20;;;;;;5032604;28;20033;-73
2021/10/25 13:11:31;;;;;;;11.85;3.78;;;17.40;72.90;;;;;;5031650;28;20436;-72
2021/10/25 13:14:00;;;;;;;4.50;2.83;;;17.30;72.80;;;;;;5031781;28;20068;-73
2021/10/25 13:16:46;;;;;;;7.70;2.70;;;17.40;73.20;;;;;;5033224;28;20100;-73
2021/10/25 13:19:14;;;;;;;5.00;2.40;;;17.40;73.20;;;;;;5032888;28;20120;-73
2021/10/25 13:21:40;;;;;;;4.78;2.70;;;17.30;73.40;;;;;;5032599;28;20029;-73
2021/10/25 13:24:08;;;;;;;7.55;2.95;;;17.30;73.40;;;;;;5032206;28;20105;-73
2021/10/25 13:26:35;;;;;;;6.90;2.90;;;17.30;73.60;;;;;;5032699;28;20124;-74
2021/10/25 13:29:01;;;;;;;8.63;2.97;;;17.10;73.50;;;;;;5031497;28;20029;-72
2021/10/25 13:31:27;;;;;;;5.13;2.50;;;17.10;73.60;;;;;;5031253;28;20114;-72
2021/10/25 13:33:52;;;;;;;7.82;3.00;;;17.00;73.60;;;;;;5033080;28;20455;-72
2021/10/25 13:36:18;;;;;;;5.35;3.00;;;16.90;73.90;;;;;;5032421;28;20061;-73
2021/10/25 13:38:44;;;;;;;5.20;2.85;;;16.90;73.90;;;;;;5032287;28;20041;-72
2021/10/25 13:41:10;;;;;;;6.28;2.90;;;16.90;73.90;;;;;;5032337;28;20029;-73
2021/10/25 13:43:35;;;;;;;8.07;3.10;;;16.90;74.70;;;;;;5032102;28;20033;-73
2021/10/25 13:46:01;;;;;;;6.13;2.58;;;16.70;74.00;;;;;;5032743;28;20329;-74
2021/10/25 13:48:26;;;;;;;7.18;2.75;;;16.80;74.10;;;;;;5032446;28;20633;-72
2021/10/25 13:50:54;;;;;;;8.73;2.60;;;16.70;74.10;;;;;;5032039;28;20040;-73
2021/10/25 13:53:20;;;;;;;5.70;2.63;;;16.60;73.90;;;;;;5031798;28;20156;-73
2021/10/25 13:55:45;;;;;;;5.28;3.08;;;16.60;74.00;;;;;;5031399;28;20033;-72
2021/10/25 13:58:11;;;;;;;6.43;2.85;;;16.60;74.00;;;;;;5032573;28;20100;-73
2021/10/25 14:00:36;;;;;;;7.85;3.63;;;16.50;74.40;;;;;;5031977;28;20447;-74
2021/10/25 14:03:02;;;;;;;25.35;13.63;;;16.40;74.00;;;;;;5031948;28;20026;-73
2021/10/25 14:05:29;;;;;;;6.20;2.83;;;16.30;74.10;;;;;;5031896;28;20111;-69
2021/10/25 14:07:55;;;;;;;6.78;3.15;;;16.40;74.10;;;;;;5030220;28;20376;-68
2021/10/25 14:12:47;;;;;;;13.63;4.20;;;16.30;74.90;;;;;;5031545;28;20479;-72
2021/10/25 14:17:42;;;;;;;7.53;3.50;;;16.20;74.40;;;;;;5031537;28;20436;-74
2021/10/25 14:20:08;;;;;;;7.80;2.70;;;16.10;74.60;;;;;;5031515;28;20597;-73
2021/10/25 14:22:34;;;;;;;8.65;3.08;;;16.10;74.90;;;;;;5031283;28;20029;-75
2021/10/25 14:25:00;;;;;;;5.57;2.35;;;16.10;74.90;;;;;;5031838;28;20040;-74
2021/10/25 14:27:25;;;;;;;7.30;2.55;;;15.90;73.70;;;;;;5031573;28;20601;-74
2021/10/25 14:29:51;;;;;;;7.97;3.03;;;15.90;73.70;;;;;;5031493;28;20702;-74
2021/10/25 14:32:17;;;;;;;5.88;2.55;;;15.80;72.90;;;;;;5031497;28;20033;-75
2021/10/25 14:34:43;;;;;;;4.85;2.55;;;15.60;71.80;;;;;;5031716;28;20060;-74
2021/10/25 14:37:10;;;;;;;6.47;2.63;;;15.60;72.20;;;;;;5031853;28;20364;-74